createdAt,value
2022-12-31T00:00:00.549Z,1.63
2022-12-31T00:02:30.543Z,1.52
2022-12-31T00:04:57.963Z,1.77
2022-12-31T00:07:25.130Z,1.60
2022-12-31T00:09:51.939Z,1.70
2022-12-31T00:12:19.927Z,1.67
2022-12-31T00:14:49.678Z,1.50
2022-12-31T00:17:19.115Z,1.65
2022-12-31T00:19:48.117Z,1.40
2022-12-31T00:22:15.430Z,1.65
2022-12-31T00:24:45.131Z,1.90
2022-12-31T00:27:12.173Z,1.85
2022-12-31T00:29:39.023Z,1.73
2022-12-31T00:32:09.032Z,1.90
2022-12-31T00:34:38.293Z,1.70
2022-12-31T00:37:06.865Z,1.95
2022-12-31T00:39:33.833Z,1.80
2022-12-31T00:42:01.839Z,1.85
2022-12-31T00:44:29.022Z,1.80
2022-12-31T00:46:55.842Z,1.73
2022-12-31T00:49:22.808Z,1.95
2022-12-31T00:51:52.128Z,2.00
2022-12-31T00:54:19.690Z,2.30
2022-12-31T00:56:48.731Z,1.83
2022-12-31T00:59:21.736Z,2.00
2022-12-31T01:01:51.904Z,2.20
2022-12-31T01:04:24.965Z,1.98
2022-12-31T01:06:52.073Z,1.92
2022-12-31T01:09:19.887Z,1.80
2022-12-31T01:11:47.192Z,1.88
2022-12-31T01:14:19.671Z,1.95
2022-12-31T01:16:52.824Z,1.55
2022-12-31T01:19:26.365Z,2.00
2022-12-31T01:21:56.707Z,1.98
2022-12-31T01:24:24.367Z,1.90
2022-12-31T01:26:51.795Z,1.95
2022-12-31T01:29:21.607Z,2.22
2022-12-31T01:31:50.623Z,2.20
2022-12-31T01:34:24.852Z,2.30
2022-12-31T01:36:53.307Z,1.80
2022-12-31T01:39:20.578Z,1.90
2022-12-31T01:41:50.083Z,2.30
2022-12-31T01:44:26.351Z,1.75
2022-12-31T01:47:06.049Z,1.30
2022-12-31T01:49:41.938Z,1.02
2022-12-31T01:52:24.918Z,1.15
2022-12-31T01:54:58.045Z,1.10
2022-12-31T01:57:30.592Z,1.20
2022-12-31T02:00:07.476Z,1.05
2022-12-31T02:02:36.012Z,1.15
2022-12-31T02:05:15.992Z,1.10
2022-12-31T02:07:45.098Z,1.10
2022-12-31T02:10:12.547Z,1.30
2022-12-31T02:12:40.763Z,1.25
2022-12-31T02:15:10.116Z,1.30
2022-12-31T02:18:05.844Z,1.73
2022-12-31T02:20:55.066Z,1.98
2022-12-31T02:23:56.233Z,2.00
2022-12-31T02:26:45.238Z,1.80
2022-12-31T02:29:36.766Z,1.70
2022-12-31T02:32:30.894Z,1.50
2022-12-31T02:35:08.383Z,1.30
2022-12-31T02:37:40.818Z,1.52
2022-12-31T02:40:14.754Z,1.40
2022-12-31T02:42:42.094Z,1.25
2022-12-31T02:45:13.613Z,1.40
2022-12-31T02:47:58.780Z,1.50
2022-12-31T02:50:55.313Z,1.92
2022-12-31T02:53:44.521Z,1.60
2022-12-31T03:08:25.391Z,1.80
2022-12-31T03:10:56.981Z,2.53
2022-12-31T03:13:24.765Z,2.33
2022-12-31T03:15:51.532Z,2.10
2022-12-31T03:18:42.788Z,2.70
2022-12-31T03:21:32.678Z,2.65
2022-12-31T03:24:22.466Z,2.78
2022-12-31T03:26:53.220Z,3.50
2022-12-31T03:29:21.383Z,3.67
2022-12-31T03:31:52.084Z,3.72
2022-12-31T03:34:19.504Z,3.65
2022-12-31T03:36:46.294Z,3.90
2022-12-31T03:39:22.894Z,4.00
2022-12-31T03:41:49.694Z,3.88
2022-12-31T03:44:19.364Z,4.32
2022-12-31T03:46:53.349Z,5.00
2022-12-31T03:49:20.761Z,4.45
2022-12-31T03:51:50.220Z,5.20
2022-12-31T03:54:20.076Z,5.15
2022-12-31T03:56:51.283Z,5.57
2022-12-31T03:59:20.879Z,5.10
2022-12-31T04:01:47.924Z,5.25
2022-12-31T04:04:19.523Z,5.60
2022-12-31T04:06:50.845Z,5.68
2022-12-31T04:09:20.629Z,5.50
2022-12-31T04:11:50.788Z,6.47
2022-12-31T04:14:19.655Z,17.88
2022-12-31T04:16:46.957Z,7.20
2022-12-31T04:19:16.538Z,6.47
2022-12-31T04:21:43.346Z,5.43
2022-12-31T04:24:10.892Z,6.55
2022-12-31T04:26:39.949Z,5.20
2022-12-31T04:29:11.693Z,5.35
2022-12-31T04:31:43.778Z,6.30
2022-12-31T04:34:11.836Z,7.72
2022-12-31T04:36:41.302Z,6.75
2022-12-31T04:39:10.440Z,4.78
2022-12-31T04:41:37.784Z,5.47
2022-12-31T04:44:05.119Z,5.20
2022-12-31T04:46:34.099Z,4.45
2022-12-31T04:49:02.307Z,4.65
2022-12-31T04:51:30.743Z,4.95
2022-12-31T04:54:01.159Z,5.07
2022-12-31T04:56:28.725Z,4.55
2022-12-31T04:58:58.552Z,4.47
2022-12-31T05:01:27.221Z,4.72
2022-12-31T05:03:54.555Z,4.43
2022-12-31T05:06:24.130Z,4.18
2022-12-31T05:08:51.378Z,4.28
2022-12-31T05:11:30.537Z,3.47
2022-12-31T05:13:58.033Z,4.00
2022-12-31T05:16:26.051Z,3.63
2022-12-31T05:18:53.434Z,3.80
2022-12-31T05:21:22.016Z,3.53
2022-12-31T05:23:50.112Z,3.63
2022-12-31T05:26:19.995Z,4.00
2022-12-31T05:28:59.727Z,3.53
2022-12-31T05:31:26.902Z,3.92
2022-12-31T05:33:54.783Z,3.60
2022-12-31T05:36:27.660Z,3.55
2022-12-31T05:38:54.944Z,3.72
2022-12-31T05:41:22.315Z,4.00
2022-12-31T05:43:52.342Z,4.15
2022-12-31T05:46:24.183Z,3.75
2022-12-31T05:48:57.400Z,3.90
2022-12-31T05:51:24.688Z,2.83
2022-12-31T05:54:00.785Z,2.30
2022-12-31T05:56:33.821Z,1.30
2022-12-31T05:59:01.973Z,1.60
2022-12-31T06:01:29.403Z,1.63
2022-12-31T06:03:56.648Z,2.80
2022-12-31T06:06:29.163Z,1.20
2022-12-31T06:09:00.806Z,1.00
2022-12-31T06:11:28.295Z,1.00
2022-12-31T06:13:56.648Z,0.90
2022-12-31T06:16:28.125Z,1.10
2022-12-31T06:19:05.181Z,0.88
2022-12-31T06:21:38.902Z,0.90
2022-12-31T06:24:08.613Z,0.80
2022-12-31T06:26:38.111Z,1.00
2022-12-31T06:29:07.352Z,1.30
2022-12-31T06:31:40.995Z,0.85
2022-12-31T06:36:39.101Z,0.80
2022-12-31T06:39:09.730Z,0.70
2022-12-31T06:41:37.028Z,0.95
2022-12-31T06:44:07.363Z,0.90
2022-12-31T06:46:39.565Z,0.80
2022-12-31T06:49:11.849Z,0.95
2022-12-31T06:51:51.256Z,0.88
2022-12-31T06:54:26.556Z,0.80
2022-12-31T06:57:02.323Z,0.77
2022-12-31T06:59:33.444Z,1.20
2022-12-31T07:03:11.464Z,1.05
2022-12-31T07:05:57.993Z,0.80
2022-12-31T07:08:35.890Z,0.80
2022-12-31T07:11:34.851Z,1.10
2022-12-31T07:14:56.733Z,0.90
2022-12-31T07:18:12.974Z,0.90
2022-12-31T07:21:04.491Z,1.00
2022-12-31T07:23:50.504Z,1.00
2022-12-31T07:26:57.103Z,1.00
2022-12-31T07:29:36.874Z,0.90
2022-12-31T07:32:56.713Z,0.80
2022-12-31T07:37:10.981Z,0.98
2022-12-31T07:43:44.814Z,1.20
2022-12-31T07:50:08.401Z,0.88
2022-12-31T07:53:10.242Z,0.93
2022-12-31T07:56:19.249Z,1.15
2022-12-31T08:03:26.809Z,0.90
2022-12-31T08:06:43.055Z,1.08
2022-12-31T08:17:30.037Z,0.75
2022-12-31T08:24:59.452Z,0.80
2022-12-31T08:37:15.822Z,0.93
2022-12-31T08:44:46.563Z,0.80
2022-12-31T08:52:38.570Z,0.77
2022-12-31T09:15:56.375Z,1.00
2022-12-31T09:28:24.442Z,0.90
2022-12-31T12:32:10.155Z,1.80
2022-12-31T12:49:32.259Z,1.63
2022-12-31T12:58:51.691Z,1.70
2022-12-31T13:05:00.028Z,1.77
2022-12-31T13:07:42.327Z,1.85
2022-12-31T13:20:37.475Z,1.80
2022-12-31T13:24:15.101Z,1.75
2022-12-31T13:30:47.933Z,2.25
2022-12-31T13:34:25.844Z,1.50
2022-12-31T13:38:36.874Z,2.15
2022-12-31T13:45:41.401Z,2.20
2022-12-31T13:49:42.844Z,2.15
2022-12-31T13:53:13.625Z,2.20
2022-12-31T13:56:33.123Z,2.03
2022-12-31T13:59:37.605Z,1.63
2022-12-31T14:11:45.472Z,2.10
2022-12-31T14:14:45.072Z,2.33
2022-12-31T14:18:32.533Z,2.08
2022-12-31T14:21:31.769Z,2.78
2022-12-31T14:46:14.547Z,2.40
2022-12-31T14:50:03.438Z,2.40
2022-12-31T14:53:41.669Z,2.65
2022-12-31T14:56:56.627Z,2.78
2022-12-31T14:59:45.182Z,2.65
2022-12-31T15:03:01.725Z,2.50
2022-12-31T15:14:09.283Z,2.50
2022-12-31T15:17:21.537Z,2.10
2022-12-31T15:20:55.875Z,2.45
2022-12-31T15:24:04.843Z,2.47
2022-12-31T15:30:21.421Z,2.00
2022-12-31T15:33:07.829Z,2.38
2022-12-31T15:35:57.928Z,2.95
2022-12-31T15:42:52.979Z,1.92
2022-12-31T15:45:49.803Z,2.20
2022-12-31T15:48:47.854Z,2.58
2022-12-31T15:51:56.727Z,2.70
2022-12-31T15:54:52.458Z,1.92
2022-12-31T15:57:33.340Z,2.30
2022-12-31T16:03:52.522Z,2.70
2022-12-31T16:06:50.609Z,3.65
2022-12-31T16:09:38.947Z,3.97
2022-12-31T16:15:48.929Z,3.22
2022-12-31T16:19:04.868Z,3.08
2022-12-31T16:25:34.353Z,10.90
2022-12-31T16:28:51.160Z,7.85
2022-12-31T16:31:35.623Z,5.38
2022-12-31T16:34:26.602Z,2.95
2022-12-31T16:37:24.190Z,2.72
2022-12-31T16:40:51.627Z,5.72
2022-12-31T16:47:01.508Z,3.20
2022-12-31T16:50:03.567Z,5.85
2022-12-31T16:53:07.293Z,3.45
2022-12-31T16:58:59.187Z,4.38
2022-12-31T17:02:11.532Z,3.10
2022-12-31T17:04:56.277Z,6.25
2022-12-31T17:11:03.525Z,4.10
2022-12-31T17:13:57.492Z,3.90
2022-12-31T17:16:33.999Z,3.47
2022-12-31T17:19:50.055Z,5.60
2022-12-31T17:22:39.229Z,3.95
2022-12-31T17:26:38.532Z,5.63
2022-12-31T18:09:56.112Z,7.63
2022-12-31T18:12:52.841Z,7.22
2022-12-31T18:19:06.451Z,9.02
2022-12-31T18:22:23.801Z,7.38
2022-12-31T18:25:09.720Z,5.35
2022-12-31T18:27:57.951Z,6.65
2022-12-31T18:30:52.710Z,7.38
2022-12-31T18:33:50.907Z,6.45
2022-12-31T18:36:29.843Z,6.45
2022-12-31T18:39:20.722Z,12.27
2022-12-31T18:41:56.824Z,5.60
2022-12-31T18:44:39.025Z,6.13
2022-12-31T18:47:24.454Z,6.50
2022-12-31T18:52:53.691Z,4.18
2022-12-31T18:55:53.485Z,3.78
2022-12-31T18:59:03.287Z,3.70
2022-12-31T19:04:34.473Z,3.83
2022-12-31T19:07:12.833Z,4.20
2022-12-31T19:09:58.651Z,3.97
2022-12-31T19:12:49.476Z,6.40
2022-12-31T19:15:54.378Z,3.88
2022-12-31T19:18:35.314Z,5.95
2022-12-31T19:21:14.300Z,4.97
2022-12-31T19:23:51.243Z,5.28
2022-12-31T19:26:29.261Z,5.18
2022-12-31T19:28:59.571Z,9.90
2022-12-31T19:31:51.805Z,5.90
2022-12-31T19:34:27.457Z,5.13
2022-12-31T19:37:00.853Z,3.90
2022-12-31T19:39:35.918Z,5.03
2022-12-31T19:42:15.828Z,4.38
2022-12-31T19:44:57.247Z,3.95
2022-12-31T19:47:30.210Z,9.73
2022-12-31T19:50:08.829Z,4.50
2022-12-31T19:52:59.522Z,3.95
2022-12-31T19:55:37.936Z,3.60
2022-12-31T19:58:06.768Z,3.25
2022-12-31T20:00:57.074Z,3.25
2022-12-31T20:03:32.097Z,3.47
2022-12-31T20:06:11.778Z,3.30
2022-12-31T20:08:49.356Z,3.75
2022-12-31T20:11:23.942Z,4.72
2022-12-31T20:14:01.314Z,4.75
2022-12-31T20:16:36.553Z,4.70
2022-12-31T20:19:06.349Z,6.97
2022-12-31T20:21:40.317Z,4.60
2022-12-31T20:24:16.738Z,3.50
2022-12-31T20:26:51.062Z,3.30
2022-12-31T20:30:01.173Z,4.20
2022-12-31T20:32:30.757Z,3.70
2022-12-31T20:35:00.210Z,3.38
2022-12-31T20:37:40.244Z,4.13
2022-12-31T20:40:10.944Z,4.32
2022-12-31T20:42:55.812Z,3.70
2022-12-31T20:45:53.984Z,7.38
2022-12-31T20:49:00.632Z,4.07
2022-12-31T20:51:51.932Z,3.53
2022-12-31T20:54:27.529Z,3.40
2022-12-31T20:57:14.571Z,2.80
2022-12-31T21:00:16.184Z,2.90
2022-12-31T21:03:24.059Z,3.53
2022-12-31T21:06:08.762Z,3.88
2022-12-31T21:09:08.540Z,4.35
2022-12-31T21:11:56.947Z,3.67
2022-12-31T21:14:33.904Z,10.52
2022-12-31T21:17:15.321Z,6.20
2022-12-31T21:19:56.796Z,10.38
2022-12-31T21:26:12.197Z,9.77
2022-12-31T21:28:57.315Z,4.80
2022-12-31T21:31:35.126Z,3.45
2022-12-31T21:34:02.670Z,4.38
2022-12-31T21:37:01.555Z,4.50
2022-12-31T21:39:43.083Z,4.75
2022-12-31T21:42:20.840Z,3.47
2022-12-31T21:45:07.739Z,3.15
2022-12-31T21:47:56.611Z,3.22
2022-12-31T21:50:34.528Z,3.67
2022-12-31T21:53:08.402Z,3.60
2022-12-31T21:55:59.639Z,4.20
2022-12-31T21:58:36.856Z,5.32
2022-12-31T22:01:53.586Z,4.20
2022-12-31T22:05:00.500Z,4.03
2022-12-31T22:07:15.711Z,5.30
2022-12-31T22:10:14.764Z,2.85
2022-12-31T22:13:21.997Z,3.33
2022-12-31T22:16:21.400Z,12.65
2022-12-31T22:19:01.376Z,8.75
2022-12-31T22:21:56.032Z,4.55
2022-12-31T22:24:50.403Z,3.80
2022-12-31T22:27:30.377Z,6.10
2022-12-31T22:30:07.713Z,4.13
2022-12-31T22:32:50.948Z,4.07
2022-12-31T22:35:37.978Z,3.92
2022-12-31T22:38:12.264Z,5.28
2022-12-31T22:40:51.724Z,4.38
2022-12-31T22:43:32.709Z,3.55
2022-12-31T22:46:20.887Z,3.80
2022-12-31T22:49:32.671Z,3.92
2022-12-31T22:52:09.000Z,3.25
2022-12-31T22:54:41.977Z,7.82
2022-12-31T22:57:19.980Z,3.70
2022-12-31T22:59:53.227Z,4.18
2022-12-31T23:02:56.858Z,31.17
2022-12-31T23:05:34.293Z,29.63
2022-12-31T23:11:05.842Z,41.42
2022-12-31T23:14:14.711Z,55.90
2022-12-31T23:17:00.610Z,48.33
2022-12-31T23:20:10.778Z,34.72
2022-12-31T23:23:13.500Z,32.75
2022-12-31T23:25:53.059Z,36.08
2022-12-31T23:28:27.606Z,26.23
2022-12-31T23:31:15.007Z,26.45
2022-12-31T23:33:56.205Z,18.52
2022-12-31T23:36:29.358Z,21.60
2022-12-31T23:39:11.035Z,17.05
2022-12-31T23:42:14.851Z,20.33
2022-12-31T23:44:46.653Z,12.68
2022-12-31T23:47:22.393Z,12.23
2022-12-31T23:49:55.033Z,11.15
2022-12-31T23:52:25.497Z,8.38
2022-12-31T23:55:05.850Z,9.25
2022-12-31T23:57:38.253Z,8.32
